createdAt,value
2017-08-01T00:00:35.116Z,0
2017-08-01T00:01:43.292Z,0
2017-08-01T00:02:51.541Z,0
2017-08-01T00:03:59.406Z,0
2017-08-01T00:05:07.470Z,0
2017-08-01T00:06:15.561Z,0
2017-08-01T00:07:23.649Z,0
2017-08-01T00:08:31.740Z,0
2017-08-01T00:09:39.827Z,0
2017-08-01T00:10:47.921Z,0
2017-08-01T00:11:56.005Z,0
2017-08-01T00:13:04.092Z,0
2017-08-01T00:14:12.183Z,0
2017-08-01T00:15:20.276Z,0
2017-08-01T00:16:28.363Z,0
2017-08-01T00:17:36.453Z,0
2017-08-01T00:18:44.541Z,0
2017-08-01T00:19:52.640Z,0
2017-08-01T00:21:00.719Z,0
2017-08-01T00:22:08.808Z,0
2017-08-01T00:23:16.899Z,0
2017-08-01T00:24:24.988Z,0
2017-08-01T00:25:33.083Z,0
2017-08-01T00:26:41.166Z,0
2017-08-01T00:27:49.278Z,0
2017-08-01T00:28:57.342Z,0
2017-08-01T00:30:05.432Z,0
2017-08-01T00:31:13.521Z,0
2017-08-01T00:32:21.638Z,0
2017-08-01T00:33:29.699Z,0
2017-08-01T00:34:37.787Z,0
2017-08-01T00:35:45.877Z,0
2017-08-01T00:36:53.968Z,0
2017-08-01T00:38:02.062Z,0
2017-08-01T00:39:10.146Z,0
2017-08-01T00:40:18.234Z,0
2017-08-01T00:41:26.322Z,0
2017-08-01T00:42:34.412Z,0
2017-08-01T00:43:42.526Z,0
2017-08-01T00:44:50.589Z,0
2017-08-01T00:45:58.682Z,0
2017-08-01T00:47:06.768Z,0
2017-08-01T00:48:14.859Z,0
2017-08-01T00:49:22.946Z,0
2017-08-01T00:50:31.035Z,0
2017-08-01T00:51:39.141Z,0
2017-08-01T00:52:47.214Z,0
2017-08-01T00:53:55.305Z,0
2017-08-01T00:55:03.392Z,0
2017-08-01T00:56:11.483Z,0
2017-08-01T00:57:19.580Z,0
2017-08-01T00:58:27.686Z,0
2017-08-01T00:59:35.752Z,0
2017-08-01T01:00:43.837Z,0
2017-08-01T01:01:51.926Z,0
2017-08-01T01:03:00.022Z,0
2017-08-01T01:04:08.106Z,0
2017-08-01T01:05:16.197Z,0
2017-08-01T01:06:24.286Z,0
2017-08-01T01:07:32.374Z,0
2017-08-01T01:08:40.470Z,0
2017-08-01T01:09:48.552Z,0
2017-08-01T01:10:56.641Z,0
2017-08-01T01:12:04.730Z,0
2017-08-01T01:13:12.832Z,0
2017-08-01T01:14:20.908Z,0
2017-08-01T01:15:28.999Z,0
2017-08-01T01:16:37.086Z,0
2017-08-01T01:17:45.173Z,0
2017-08-01T01:18:53.263Z,0
2017-08-01T01:20:01.607Z,0
2017-08-01T01:21:09.452Z,0
2017-08-01T01:22:17.538Z,0
2017-08-01T01:23:25.620Z,0
2017-08-01T01:24:33.709Z,0
2017-08-01T01:25:41.797Z,0
2017-08-01T01:26:49.891Z,0
2017-08-01T01:27:57.980Z,0
2017-08-01T01:29:06.068Z,0
2017-08-01T01:30:14.159Z,0
2017-08-01T01:31:22.248Z,0
2017-08-01T01:32:30.335Z,0
2017-08-01T01:33:38.426Z,0
2017-08-01T01:34:46.515Z,0
2017-08-01T01:35:54.605Z,0
2017-08-01T01:37:02.693Z,0
2017-08-01T01:38:10.789Z,0
2017-08-01T01:39:18.872Z,0
2017-08-01T01:40:26.960Z,0
2017-08-01T01:41:35.048Z,0
2017-08-01T01:42:43.137Z,0
2017-08-01T01:43:51.225Z,0
2017-08-01T01:44:59.317Z,0
2017-08-01T01:46:07.413Z,0
2017-08-01T01:47:15.503Z,0
2017-08-01T01:48:23.581Z,0
2017-08-01T01:49:31.671Z,0
2017-08-01T01:50:39.762Z,0
2017-08-01T01:51:47.852Z,0
2017-08-01T01:52:55.939Z,0
2017-08-01T01:54:04.032Z,0
2017-08-01T01:55:12.120Z,0
2017-08-01T01:56:20.209Z,0
2017-08-01T01:57:28.306Z,0
2017-08-01T01:58:36.402Z,0
2017-08-01T01:59:44.490Z,0
2017-08-01T02:00:52.578Z,0
2017-08-01T02:02:00.672Z,0
2017-08-01T02:03:08.761Z,0
2017-08-01T02:04:16.851Z,0
2017-08-01T02:05:24.946Z,0
2017-08-01T02:06:33.036Z,0
2017-08-01T02:07:41.126Z,0
2017-08-01T02:08:49.221Z,0
2017-08-01T02:09:57.329Z,0
2017-08-01T02:11:05.394Z,0
2017-08-01T02:12:13.480Z,0
2017-08-01T02:13:21.595Z,0
2017-08-01T02:14:29.658Z,0
2017-08-01T02:15:37.750Z,0
2017-08-01T02:16:45.839Z,0
2017-08-01T02:17:53.930Z,0
2017-08-01T02:19:02.017Z,0
2017-08-01T02:20:10.107Z,0
2017-08-01T02:21:18.198Z,0
2017-08-01T02:22:26.284Z,0
2017-08-01T02:23:34.390Z,0
2017-08-01T02:24:42.494Z,0
2017-08-01T02:25:50.583Z,0
2017-08-01T02:26:58.648Z,0
2017-08-01T02:28:06.738Z,0
2017-08-01T02:29:14.832Z,0
2017-08-01T02:30:22.915Z,0
2017-08-01T02:31:31.004Z,0
2017-08-01T02:32:39.093Z,0
2017-08-01T02:33:47.180Z,0
2017-08-01T02:34:55.270Z,0
2017-08-01T02:36:03.361Z,0
2017-08-01T02:37:11.458Z,0
2017-08-01T02:38:19.539Z,0
2017-08-01T02:39:27.630Z,0
2017-08-01T02:40:35.715Z,0
2017-08-01T02:41:43.804Z,0
2017-08-01T02:42:51.894Z,0
2017-08-01T02:43:59.984Z,0
2017-08-01T02:45:08.073Z,0
2017-08-01T02:46:16.167Z,0
2017-08-01T02:47:24.253Z,0
2017-08-01T02:48:32.341Z,0
2017-08-01T02:49:40.425Z,0
2017-08-01T02:50:48.515Z,0
2017-08-01T02:51:56.605Z,0
2017-08-01T02:53:04.693Z,0
2017-08-01T02:54:12.783Z,0
2017-08-01T02:55:20.871Z,0
2017-08-01T02:56:28.964Z,0
2017-08-01T02:57:37.054Z,0
2017-08-01T02:58:45.140Z,0
2017-08-01T02:59:53.228Z,0
2017-08-01T03:01:01.315Z,0
2017-08-01T03:02:09.408Z,0
2017-08-01T03:03:17.519Z,0
2017-08-01T03:04:25.584Z,0
2017-08-01T03:05:33.674Z,0
2017-08-01T03:06:41.762Z,0
2017-08-01T03:07:49.857Z,0
2017-08-01T03:08:57.940Z,0
2017-08-01T03:10:06.028Z,0
2017-08-01T03:11:14.120Z,0
2017-08-01T03:12:22.205Z,0
2017-08-01T03:13:30.294Z,0
2017-08-01T03:14:38.384Z,0
2017-08-01T03:15:46.473Z,0
2017-08-01T03:16:54.560Z,0
2017-08-01T03:18:02.651Z,0
2017-08-01T03:19:10.740Z,0
2017-08-01T03:20:18.827Z,0
2017-08-01T03:21:26.922Z,0
2017-08-01T03:22:35.007Z,0
2017-08-01T03:23:43.096Z,0
2017-08-01T03:24:51.195Z,0
2017-08-01T03:25:59.281Z,0
2017-08-01T03:27:07.371Z,0
2017-08-01T03:28:15.484Z,0
2017-08-01T03:29:23.547Z,0
2017-08-01T03:30:31.641Z,0
2017-08-01T03:31:39.725Z,0
2017-08-01T03:32:47.822Z,0
2017-08-01T03:33:55.906Z,0
2017-08-01T03:35:03.998Z,0
2017-08-01T03:36:12.086Z,0
2017-08-01T03:37:20.174Z,0
2017-08-01T03:38:28.263Z,0
2017-08-01T03:39:36.350Z,0
2017-08-01T03:40:44.440Z,0
2017-08-01T03:41:52.530Z,0
2017-08-01T03:43:00.618Z,0
2017-08-01T03:44:08.707Z,0
2017-08-01T03:45:16.797Z,0
2017-08-01T03:46:24.886Z,0
2017-08-01T03:47:32.972Z,0
2017-08-01T03:48:41.061Z,0
2017-08-01T03:49:49.158Z,0
2017-08-01T03:50:57.242Z,0
2017-08-01T03:52:05.330Z,0
2017-08-01T03:53:13.443Z,0
2017-08-01T03:54:21.507Z,0
2017-08-01T03:55:29.619Z,0
2017-08-01T03:56:37.685Z,0
2017-08-01T03:57:45.774Z,0
2017-08-01T03:58:53.861Z,0
2017-08-01T04:00:01.950Z,0
2017-08-01T04:01:10.041Z,0
2017-08-01T04:02:18.128Z,0
2017-08-01T04:03:26.217Z,0
2017-08-01T04:04:34.306Z,0
2017-08-01T04:05:42.396Z,0
2017-08-01T04:06:50.484Z,0
2017-08-01T04:07:58.571Z,0
2017-08-01T04:09:06.661Z,0
2017-08-01T04:10:14.748Z,0
2017-08-01T04:11:22.839Z,0
2017-08-01T04:12:30.929Z,0
2017-08-01T04:13:39.017Z,0
2017-08-01T04:14:47.105Z,0
2017-08-01T04:15:55.198Z,4
2017-08-01T04:17:03.285Z,4
2017-08-01T04:18:11.398Z,0
2017-08-01T04:19:19.582Z,0
2017-08-01T04:20:27.550Z,0
2017-08-01T04:21:35.638Z,0
2017-08-01T04:22:43.730Z,0
2017-08-01T04:23:51.817Z,4
2017-08-01T04:24:59.907Z,4
2017-08-01T04:26:07.996Z,0
2017-08-01T04:27:16.085Z,0
2017-08-01T04:28:24.172Z,0
2017-08-01T04:29:32.261Z,0
2017-08-01T04:30:40.351Z,4
2017-08-01T04:31:48.439Z,4
2017-08-01T04:32:56.529Z,4
2017-08-01T04:34:04.618Z,0
2017-08-01T04:35:12.978Z,0
2017-08-01T04:36:20.800Z,0
2017-08-01T04:37:28.883Z,0
2017-08-01T04:38:36.971Z,0
2017-08-01T04:39:45.059Z,0
2017-08-01T04:40:53.148Z,0
2017-08-01T04:42:01.237Z,0
2017-08-01T04:59:02.573Z,4
2017-08-01T05:00:10.685Z,4
2017-08-01T05:01:18.753Z,0
2017-08-01T05:02:26.845Z,4
2017-08-01T05:03:34.933Z,4
2017-08-01T05:04:43.028Z,4
2017-08-01T05:05:51.137Z,0
2017-08-01T05:06:59.197Z,4
2017-08-01T05:08:07.288Z,4
2017-08-01T05:09:15.817Z,4
2017-08-01T05:10:23.460Z,4
2017-08-01T05:11:31.550Z,4
2017-08-01T05:12:39.943Z,4
2017-08-01T05:13:47.736Z,4
2017-08-01T05:14:55.816Z,4
2017-08-01T05:16:03.905Z,4
2017-08-01T05:17:11.999Z,4
2017-08-01T05:18:20.081Z,4
2017-08-01T05:19:28.211Z,8
2017-08-01T05:20:36.257Z,4
2017-08-01T05:21:44.348Z,4
2017-08-01T05:22:52.442Z,4
2017-08-01T05:24:00.531Z,4
2017-08-01T05:25:08.615Z,4
2017-08-01T05:26:16.704Z,4
2017-08-01T05:27:24.790Z,0
2017-08-01T05:28:32.879Z,4
2017-08-01T05:29:41.088Z,0
2017-08-01T05:30:49.064Z,4
2017-08-01T05:31:57.145Z,4
2017-08-01T05:33:05.232Z,4
2017-08-01T05:34:13.369Z,8
2017-08-01T05:35:21.413Z,4
2017-08-01T05:36:29.500Z,4
2017-08-01T05:37:37.591Z,4
2017-08-01T05:38:45.686Z,8
2017-08-01T05:39:53.764Z,8
2017-08-01T05:41:01.852Z,4
2017-08-01T05:42:09.947Z,4
2017-08-01T05:43:18.041Z,4
2017-08-01T05:44:26.120Z,4
2017-08-01T05:45:34.218Z,4
2017-08-01T05:46:42.300Z,4
2017-08-01T05:47:50.386Z,4
2017-08-01T05:48:58.476Z,4
2017-08-01T05:50:06.564Z,8
2017-08-01T05:51:14.654Z,8
2017-08-01T05:52:22.740Z,8
2017-08-01T05:53:30.838Z,8
2017-08-01T05:54:39.022Z,4
2017-08-01T05:55:47.018Z,8
2017-08-01T05:56:55.109Z,8
2017-08-01T05:58:03.197Z,8
2017-08-01T05:59:11.285Z,4
2017-08-01T06:00:19.374Z,8
2017-08-01T06:01:27.462Z,8
2017-08-01T06:02:35.552Z,4
2017-08-01T06:03:43.638Z,8
2017-08-01T06:04:51.729Z,8
2017-08-01T06:05:59.818Z,8
2017-08-01T06:07:07.905Z,8
2017-08-01T06:08:16.003Z,8
2017-08-01T06:09:24.085Z,4
2017-08-01T06:10:32.173Z,4
2017-08-01T06:11:40.263Z,4
2017-08-01T06:12:48.355Z,4
2017-08-01T06:13:56.439Z,4
2017-08-01T06:15:04.525Z,4
2017-08-01T06:16:12.613Z,8
2017-08-01T06:17:20.705Z,8
2017-08-01T06:18:28.792Z,8
2017-08-01T06:19:36.882Z,8
2017-08-01T06:20:44.984Z,8
2017-08-01T06:21:53.061Z,8
2017-08-01T06:23:01.192Z,8
2017-08-01T06:24:09.237Z,4
2017-08-01T06:25:17.333Z,8
2017-08-01T06:26:25.419Z,8
2017-08-01T06:27:33.505Z,8
2017-08-01T06:28:41.594Z,8
2017-08-01T06:29:49.681Z,8
2017-08-01T06:30:57.770Z,8
2017-08-01T06:32:05.859Z,8
2017-08-01T06:33:13.952Z,12
2017-08-01T06:34:22.038Z,8
2017-08-01T06:35:30.122Z,12
2017-08-01T06:36:38.208Z,8
2017-08-01T06:37:46.301Z,12
2017-08-01T06:38:54.398Z,8
2017-08-01T06:40:03.636Z,8
2017-08-01T06:41:10.570Z,12
2017-08-01T06:42:18.656Z,12
2017-08-01T06:43:26.744Z,12
2017-08-01T06:44:34.834Z,12
2017-08-01T06:45:42.919Z,16
2017-08-01T06:46:51.011Z,16
2017-08-01T06:47:59.097Z,16
2017-08-01T06:49:07.185Z,8
2017-08-01T06:50:15.304Z,12
2017-08-01T06:51:23.363Z,8
2017-08-01T06:52:31.464Z,12
2017-08-01T06:53:39.540Z,12
2017-08-01T06:54:47.628Z,8
2017-08-01T06:55:55.718Z,8
2017-08-01T06:57:03.802Z,16
2017-08-01T06:58:11.894Z,16
2017-08-01T06:59:20.232Z,20
2017-08-01T07:00:28.070Z,20
2017-08-01T07:01:36.161Z,16
2017-08-01T07:02:44.258Z,12
2017-08-01T07:03:52.339Z,8
2017-08-01T07:05:00.984Z,20
2017-08-01T07:06:08.512Z,20
2017-08-01T07:07:16.602Z,20
2017-08-01T07:08:24.692Z,20
2017-08-01T07:09:32.780Z,12
2017-08-01T07:10:40.873Z,16
2017-08-01T07:11:48.958Z,16
2017-08-01T07:12:57.052Z,16
2017-08-01T07:14:05.134Z,20
2017-08-01T07:15:13.222Z,20
2017-08-01T07:16:21.311Z,16
2017-08-01T07:17:29.411Z,20
2017-08-01T07:18:37.489Z,20
2017-08-01T07:19:45.577Z,20
2017-08-01T07:20:53.667Z,20
2017-08-01T07:22:01.759Z,16
2017-08-01T07:23:09.846Z,24
2017-08-01T07:24:17.932Z,24
2017-08-01T07:25:26.022Z,24
2017-08-01T07:26:34.109Z,24
2017-08-01T07:27:42.203Z,28
2017-08-01T07:28:50.296Z,24
2017-08-01T07:29:58.378Z,28
2017-08-01T07:31:06.465Z,28
2017-08-01T07:32:14.556Z,24
2017-08-01T07:33:22.642Z,28
2017-08-01T07:34:30.732Z,32
2017-08-01T07:35:38.819Z,28
2017-08-01T07:36:46.908Z,32
2017-08-01T07:37:55.003Z,28
2017-08-01T07:39:03.087Z,32
2017-08-01T07:40:11.174Z,32
2017-08-01T07:41:19.264Z,36
2017-08-01T07:42:27.353Z,36
2017-08-01T07:43:35.443Z,36
2017-08-01T07:44:43.573Z,32
2017-08-01T07:45:51.617Z,32
2017-08-01T07:46:59.709Z,32
2017-08-01T07:48:07.800Z,32
2017-08-01T07:49:15.889Z,32
2017-08-01T07:50:23.978Z,32
2017-08-01T07:51:32.068Z,32
2017-08-01T07:52:40.154Z,32
2017-08-01T07:53:48.243Z,32
2017-08-01T07:54:56.332Z,32
2017-08-01T07:56:04.418Z,12
2017-08-01T07:57:12.510Z,28
2017-08-01T07:58:20.605Z,24
2017-08-01T07:59:28.851Z,28
2017-08-01T08:00:36.781Z,28
2017-08-01T08:01:44.870Z,28
2017-08-01T08:02:52.968Z,28
2017-08-01T08:04:01.049Z,28
2017-08-01T08:05:09.135Z,28
2017-08-01T08:06:17.237Z,32
2017-08-01T08:07:25.314Z,28
2017-08-01T08:08:33.405Z,28
2017-08-01T08:09:41.495Z,32
2017-08-01T08:10:49.583Z,32
2017-08-01T08:11:57.671Z,32
2017-08-01T08:13:05.782Z,32
2017-08-01T08:14:13.850Z,32
2017-08-01T08:15:21.953Z,32
2017-08-01T08:16:30.042Z,28
2017-08-01T08:17:38.133Z,32
2017-08-01T08:18:46.219Z,32
2017-08-01T08:19:54.317Z,32
2017-08-01T08:21:02.399Z,32
2017-08-01T08:22:10.489Z,32
2017-08-01T08:23:18.577Z,32
2017-08-01T08:24:26.667Z,28
2017-08-01T08:25:34.834Z,32
2017-08-01T08:26:42.848Z,32
2017-08-01T08:27:50.934Z,28
2017-08-01T08:28:59.145Z,32
2017-08-01T08:30:07.116Z,32
2017-08-01T08:31:15.206Z,28
2017-08-01T08:32:23.294Z,32
2017-08-01T08:33:31.385Z,32
2017-08-01T08:34:39.483Z,28
2017-08-01T08:35:47.562Z,28
2017-08-01T08:36:55.651Z,28
2017-08-01T08:38:03.746Z,28
2017-08-01T08:39:11.831Z,28
2017-08-01T08:40:19.921Z,24
2017-08-01T08:41:28.020Z,24
2017-08-01T08:42:36.099Z,28
2017-08-01T08:43:44.189Z,28
2017-08-01T08:44:52.280Z,24
2017-08-01T08:46:00.374Z,28
2017-08-01T08:47:08.457Z,24
2017-08-01T08:48:16.545Z,24
2017-08-01T08:49:24.636Z,24
2017-08-01T08:50:32.726Z,24
2017-08-01T08:51:40.817Z,24
2017-08-01T08:52:48.907Z,24
2017-08-01T08:53:57.004Z,24
2017-08-01T08:55:05.084Z,24
2017-08-01T08:56:13.174Z,20
2017-08-01T08:57:21.266Z,24
2017-08-01T08:58:29.363Z,24
2017-08-01T08:59:37.441Z,24
2017-08-01T09:00:45.531Z,24
2017-08-01T09:01:53.622Z,24
2017-08-01T09:03:01.710Z,24
2017-08-01T09:04:09.800Z,24
2017-08-01T09:05:17.892Z,24
2017-08-01T09:06:25.991Z,24
2017-08-01T09:07:34.083Z,24
2017-08-01T09:08:42.191Z,24
2017-08-01T09:09:50.269Z,24
2017-08-01T09:10:58.349Z,24
2017-08-01T09:12:06.439Z,24
2017-08-01T09:13:14.529Z,24
2017-08-01T09:14:22.634Z,24
2017-08-01T09:15:30.720Z,24
2017-08-01T09:16:38.811Z,24
2017-08-01T09:17:46.899Z,24
2017-08-01T09:18:54.996Z,20
2017-08-01T09:20:03.080Z,24
2017-08-01T09:21:11.177Z,24
2017-08-01T09:22:19.268Z,24
2017-08-01T09:23:27.349Z,24
2017-08-01T09:24:35.442Z,24
2017-08-01T09:25:43.529Z,20
2017-08-01T09:26:51.618Z,24
2017-08-01T09:27:59.707Z,24
2017-08-01T09:29:07.798Z,24
2017-08-01T09:30:15.887Z,24
2017-08-01T09:31:23.975Z,24
2017-08-01T09:32:32.064Z,20
2017-08-01T09:33:40.154Z,24
2017-08-01T09:34:48.245Z,24
2017-08-01T09:35:56.335Z,24
2017-08-01T09:37:04.425Z,24
2017-08-01T09:38:12.515Z,24
2017-08-01T09:39:20.602Z,24
2017-08-01T09:40:28.696Z,24
2017-08-01T09:41:36.782Z,24
2017-08-01T09:42:44.871Z,24
2017-08-01T09:43:52.970Z,24
2017-08-01T09:45:01.235Z,24
2017-08-01T09:46:09.142Z,24
2017-08-01T09:47:17.232Z,24
2017-08-01T09:48:25.322Z,24
2017-08-01T09:49:33.412Z,24
2017-08-01T09:50:41.500Z,24
2017-08-01T09:51:49.606Z,28
2017-08-01T09:52:57.679Z,24
2017-08-01T09:54:05.768Z,24
2017-08-01T09:55:13.858Z,24
2017-08-01T09:56:21.955Z,24
2017-08-01T09:57:30.039Z,24
2017-08-01T09:58:38.128Z,24
2017-08-01T09:59:46.218Z,28
2017-08-01T10:00:54.309Z,28
2017-08-01T10:02:02.398Z,28
2017-08-01T10:03:10.488Z,24
2017-08-01T10:04:18.577Z,24
2017-08-01T10:05:26.664Z,24
2017-08-01T10:06:34.757Z,28
2017-08-01T10:07:42.855Z,28
2017-08-01T10:08:50.938Z,28
2017-08-01T10:09:59.028Z,24
2017-08-01T10:11:07.117Z,24
2017-08-01T10:12:15.205Z,24
2017-08-01T10:13:23.293Z,24
2017-08-01T10:14:31.391Z,24
2017-08-01T10:15:39.474Z,24
2017-08-01T10:16:47.564Z,28
2017-08-01T10:17:55.655Z,28
2017-08-01T10:19:03.746Z,24
2017-08-01T10:20:11.838Z,24
2017-08-01T10:21:19.935Z,24
2017-08-01T10:22:28.023Z,28
2017-08-01T10:23:36.117Z,28
2017-08-01T10:24:44.204Z,28
2017-08-01T10:25:52.351Z,28
2017-08-01T10:27:00.387Z,28
2017-08-01T10:28:08.474Z,24
2017-08-01T10:29:16.563Z,24
2017-08-01T10:30:24.653Z,24
2017-08-01T10:31:32.743Z,24
2017-08-01T10:32:40.839Z,24
2017-08-01T10:33:48.924Z,28
2017-08-01T10:34:57.015Z,28
2017-08-01T10:36:05.103Z,28
2017-08-01T10:37:13.196Z,28
2017-08-01T10:38:21.285Z,24
2017-08-01T10:39:29.374Z,28
2017-08-01T10:40:37.465Z,28
2017-08-01T10:41:45.553Z,28
2017-08-01T10:42:53.644Z,28
2017-08-01T10:44:01.735Z,28
2017-08-01T10:45:09.825Z,28
2017-08-01T10:46:17.914Z,28
2017-08-01T10:47:26.006Z,28
2017-08-01T10:48:34.097Z,28
2017-08-01T10:49:42.184Z,28
2017-08-01T10:50:50.279Z,28
2017-08-01T10:51:58.364Z,32
2017-08-01T10:53:06.454Z,28
2017-08-01T10:54:14.543Z,32
2017-08-01T10:55:22.634Z,28
2017-08-01T10:56:30.728Z,32
2017-08-01T10:57:38.814Z,28
2017-08-01T10:58:46.905Z,32
2017-08-01T10:59:54.995Z,32
2017-08-01T11:01:03.089Z,24
2017-08-01T11:02:11.173Z,24
2017-08-01T11:03:19.266Z,16
2017-08-01T11:04:27.356Z,16
2017-08-01T11:05:35.454Z,28
2017-08-01T11:06:43.543Z,32
2017-08-01T11:07:51.633Z,32
2017-08-01T11:08:59.735Z,8
2017-08-01T11:10:07.835Z,32
2017-08-01T11:11:15.922Z,20
2017-08-01T11:12:24.022Z,28
2017-08-01T11:13:32.119Z,28
2017-08-01T11:14:40.202Z,28
2017-08-01T11:15:48.290Z,24
2017-08-01T11:16:56.383Z,24
2017-08-01T11:18:04.472Z,24
2017-08-01T11:19:12.571Z,24
2017-08-01T11:20:20.662Z,28
2017-08-01T11:21:28.750Z,28
2017-08-01T11:22:36.843Z,24
2017-08-01T11:23:44.930Z,24
2017-08-01T11:24:53.034Z,24
2017-08-01T11:26:01.112Z,24
2017-08-01T11:27:09.200Z,24
2017-08-01T11:28:17.292Z,20
2017-08-01T11:29:25.381Z,20
2017-08-01T11:30:33.470Z,28
2017-08-01T11:31:41.562Z,24
2017-08-01T11:32:49.652Z,28
2017-08-01T11:33:57.752Z,28
2017-08-01T11:35:05.834Z,28
2017-08-01T11:36:13.924Z,28
2017-08-01T11:37:22.014Z,24
2017-08-01T11:38:30.105Z,24
2017-08-01T11:39:38.194Z,28
2017-08-01T11:40:46.286Z,24
2017-08-01T11:41:54.373Z,24
2017-08-01T11:43:02.469Z,24
2017-08-01T11:44:10.555Z,20
2017-08-01T11:45:18.644Z,24
2017-08-01T11:46:26.737Z,20
2017-08-01T11:47:34.825Z,20
2017-08-01T11:48:42.918Z,24
2017-08-01T11:49:51.008Z,24
2017-08-01T11:50:59.096Z,24
2017-08-01T11:52:07.187Z,20
2017-08-01T11:53:15.285Z,24
2017-08-01T11:54:23.367Z,24
2017-08-01T11:55:31.463Z,20
2017-08-01T11:56:39.547Z,24
2017-08-01T11:57:47.636Z,20
2017-08-01T11:58:55.724Z,20
2017-08-01T12:00:03.816Z,20
2017-08-01T12:01:11.975Z,20
2017-08-01T12:02:19.997Z,20
2017-08-01T12:03:28.087Z,20
2017-08-01T12:04:36.193Z,24
2017-08-01T12:05:44.282Z,20
2017-08-01T12:06:52.370Z,24
2017-08-01T12:08:00.457Z,20
2017-08-01T12:09:08.564Z,20
2017-08-01T12:10:16.650Z,16
2017-08-01T12:11:24.740Z,16
2017-08-01T12:12:32.830Z,16
2017-08-01T12:13:40.939Z,20
2017-08-01T12:14:49.012Z,24
2017-08-01T12:15:57.101Z,28
2017-08-01T12:17:05.194Z,20
2017-08-01T12:18:13.279Z,24
2017-08-01T12:19:21.371Z,20
2017-08-01T12:20:29.464Z,20
2017-08-01T12:21:37.558Z,20
2017-08-01T12:22:45.643Z,20
2017-08-01T12:23:53.744Z,20
2017-08-01T12:25:01.834Z,20
2017-08-01T12:26:09.925Z,20
2017-08-01T12:27:18.016Z,20
2017-08-01T12:28:26.107Z,20
2017-08-01T12:29:34.196Z,20
2017-08-01T12:30:42.287Z,16
2017-08-01T12:31:50.377Z,20
2017-08-01T12:32:58.467Z,20
2017-08-01T12:34:06.557Z,20
2017-08-01T12:35:14.657Z,20
2017-08-01T12:36:22.738Z,20
2017-08-01T12:37:30.828Z,16
2017-08-01T12:38:38.919Z,20
2017-08-01T12:39:47.016Z,16
2017-08-01T12:40:55.115Z,16
2017-08-01T12:42:03.195Z,16
2017-08-01T12:43:11.284Z,16
2017-08-01T12:44:19.376Z,16
2017-08-01T12:45:27.525Z,16
2017-08-01T12:46:35.569Z,16
2017-08-01T12:47:43.657Z,16
2017-08-01T12:48:51.747Z,16
2017-08-01T12:49:59.849Z,16
2017-08-01T12:51:07.940Z,12
2017-08-01T12:52:16.039Z,16
2017-08-01T12:53:24.121Z,16
2017-08-01T12:54:32.211Z,12
2017-08-01T12:55:40.300Z,12
2017-08-01T12:56:48.446Z,16
2017-08-01T12:57:56.480Z,12
2017-08-01T12:59:04.570Z,16
2017-08-01T13:00:12.662Z,16
2017-08-01T13:01:20.751Z,12
2017-08-01T13:02:28.843Z,12
2017-08-01T13:03:36.939Z,12
2017-08-01T13:04:45.027Z,12
2017-08-01T13:05:53.115Z,16
2017-08-01T13:07:01.220Z,16
2017-08-01T13:08:09.322Z,16
2017-08-01T13:09:17.411Z,16
2017-08-01T13:10:25.500Z,12
2017-08-01T13:11:33.589Z,12
2017-08-01T13:12:41.680Z,16
2017-08-01T13:13:49.771Z,16
2017-08-01T13:14:57.862Z,12
2017-08-01T13:16:05.958Z,12
2017-08-01T13:17:14.048Z,12
2017-08-01T13:18:22.143Z,16
2017-08-01T13:19:30.344Z,16
2017-08-01T13:20:38.318Z,12
2017-08-01T13:21:46.401Z,12
2017-08-01T13:22:54.493Z,16
2017-08-01T13:24:02.587Z,8
2017-08-01T13:25:10.676Z,12
2017-08-01T13:26:18.764Z,16
2017-08-01T13:27:26.856Z,16
2017-08-01T13:28:34.948Z,12
2017-08-01T13:29:43.096Z,12
2017-08-01T13:30:51.127Z,12
2017-08-01T13:31:59.220Z,16
2017-08-01T13:33:07.311Z,12
2017-08-01T13:34:15.419Z,8
2017-08-01T13:35:23.502Z,12
2017-08-01T13:36:31.607Z,12
2017-08-01T13:37:39.695Z,8
2017-08-01T13:38:47.786Z,8
2017-08-01T13:39:55.878Z,16
2017-08-01T13:41:03.969Z,12
2017-08-01T13:42:12.068Z,12
2017-08-01T13:43:20.150Z,12
2017-08-01T13:44:28.241Z,12
2017-08-01T13:45:36.339Z,12
2017-08-01T13:46:44.440Z,12
2017-08-01T13:47:52.531Z,16
2017-08-01T13:49:00.620Z,16
2017-08-01T13:50:08.709Z,12
2017-08-01T13:51:16.799Z,16
2017-08-01T13:52:24.921Z,20
2017-08-01T13:53:33.009Z,12
2017-08-01T13:54:41.101Z,20
2017-08-01T13:55:49.197Z,16
2017-08-01T13:56:57.283Z,12
2017-08-01T13:58:05.382Z,8
2017-08-01T13:59:13.473Z,12
2017-08-01T14:00:21.564Z,12
2017-08-01T14:01:29.653Z,16
2017-08-01T14:02:37.744Z,20
2017-08-01T14:03:45.844Z,16
2017-08-01T14:04:53.927Z,16
2017-08-01T14:06:02.017Z,20
2017-08-01T14:07:10.105Z,20
2017-08-01T14:08:18.199Z,20
2017-08-01T14:09:26.289Z,16
2017-08-01T14:10:34.381Z,16
2017-08-01T14:11:42.468Z,16
2017-08-01T14:12:50.559Z,12
2017-08-01T14:13:58.649Z,12
2017-08-01T14:15:06.747Z,12
2017-08-01T14:16:14.832Z,12
2017-08-01T14:17:22.922Z,12
2017-08-01T14:18:31.010Z,12
2017-08-01T14:19:39.224Z,12
2017-08-01T14:20:47.193Z,8
2017-08-01T14:21:55.285Z,12
2017-08-01T14:23:03.372Z,12
2017-08-01T14:24:11.463Z,12
2017-08-01T14:25:19.554Z,12
2017-08-01T14:26:27.645Z,8
2017-08-01T14:27:35.736Z,8
2017-08-01T14:28:43.827Z,12
2017-08-01T14:29:51.917Z,12
2017-08-01T14:31:00.512Z,12
2017-08-01T14:32:08.097Z,12
2017-08-01T14:33:16.187Z,12
2017-08-01T14:34:24.278Z,12
2017-08-01T14:35:32.370Z,12
2017-08-01T14:36:40.460Z,12
2017-08-01T14:37:48.550Z,12
2017-08-01T14:38:56.642Z,12
2017-08-01T14:40:04.733Z,12
2017-08-01T14:41:12.822Z,12
2017-08-01T14:42:20.913Z,12
2017-08-01T14:43:29.004Z,12
2017-08-01T14:44:37.093Z,12
2017-08-01T14:45:45.187Z,8
2017-08-01T14:46:53.276Z,8
2017-08-01T14:48:01.370Z,8
2017-08-01T14:49:09.463Z,8
2017-08-01T14:50:17.554Z,8
2017-08-01T14:51:25.641Z,8
2017-08-01T14:52:33.732Z,8
2017-08-01T14:53:41.823Z,12
2017-08-01T14:54:49.915Z,8
2017-08-01T14:55:58.031Z,8
2017-08-01T14:57:06.099Z,8
2017-08-01T14:58:14.188Z,8
2017-08-01T14:59:22.278Z,8
2017-08-01T15:00:30.369Z,8
2017-08-01T15:01:38.457Z,12
2017-08-01T15:02:46.548Z,12
2017-08-01T15:03:54.654Z,8
2017-08-01T15:05:02.746Z,12
2017-08-01T15:06:10.854Z,12
2017-08-01T15:07:18.929Z,16
2017-08-01T15:08:27.013Z,12
2017-08-01T15:09:35.107Z,16
2017-08-01T15:10:43.210Z,12
2017-08-01T15:11:51.287Z,12
2017-08-01T15:12:59.379Z,12
2017-08-01T15:14:07.469Z,12
2017-08-01T15:15:15.560Z,12
2017-08-01T15:16:23.649Z,12
2017-08-01T15:17:31.751Z,16
2017-08-01T15:18:39.852Z,12
2017-08-01T15:19:47.988Z,8
2017-08-01T15:20:56.027Z,8
2017-08-01T15:22:04.118Z,8
2017-08-01T15:23:12.222Z,8
2017-08-01T15:24:20.314Z,8
2017-08-01T15:25:28.417Z,8
2017-08-01T15:26:36.502Z,4
2017-08-01T15:27:44.592Z,8
2017-08-01T15:28:52.688Z,8
2017-08-01T15:30:01.095Z,8
2017-08-01T15:31:08.867Z,8
2017-08-01T15:32:16.954Z,4
2017-08-01T15:33:25.046Z,4
2017-08-01T15:34:33.145Z,0
2017-08-01T15:35:41.227Z,4
2017-08-01T15:36:49.318Z,4
2017-08-01T15:37:57.408Z,4
2017-08-01T15:39:05.497Z,4
2017-08-01T15:40:13.588Z,0
2017-08-01T15:41:21.682Z,4
2017-08-01T15:42:29.771Z,0
2017-08-01T15:43:37.861Z,4
2017-08-01T15:44:45.954Z,4
2017-08-01T15:45:54.048Z,4
2017-08-01T15:47:02.135Z,8
2017-08-01T15:48:10.227Z,8
2017-08-01T15:49:18.317Z,8
2017-08-01T15:50:26.404Z,8
2017-08-01T15:51:34.497Z,8
2017-08-01T15:52:42.588Z,8
2017-08-01T15:53:50.679Z,8
2017-08-01T15:54:58.767Z,4
2017-08-01T15:56:06.960Z,4
2017-08-01T15:57:14.958Z,4
2017-08-01T15:58:23.058Z,4
2017-08-01T15:59:31.132Z,4
2017-08-01T16:00:39.222Z,4
2017-08-01T16:01:47.313Z,4
2017-08-01T16:02:55.407Z,4
2017-08-01T16:04:03.496Z,4
2017-08-01T16:05:11.587Z,4
2017-08-01T16:06:20.508Z,4
2017-08-01T16:08:35.856Z,0
2017-08-01T16:09:43.950Z,0
2017-08-01T16:10:52.039Z,4
2017-08-01T16:12:00.131Z,4
2017-08-01T16:13:08.219Z,4
2017-08-01T16:14:16.311Z,0
2017-08-01T16:15:24.400Z,4
2017-08-01T16:16:32.495Z,0
2017-08-01T16:18:48.744Z,4
2017-08-01T16:19:56.761Z,0
2017-08-01T16:21:04.854Z,4
2017-08-01T16:22:12.945Z,4
2017-08-01T16:23:21.053Z,0
2017-08-01T16:24:29.144Z,0
2017-08-01T16:25:37.242Z,0
2017-08-01T16:26:45.323Z,4
2017-08-01T16:27:53.416Z,0
2017-08-01T16:29:01.504Z,0
2017-08-01T16:30:09.598Z,0
2017-08-01T16:31:17.688Z,0
2017-08-01T16:32:25.781Z,0
2017-08-01T16:33:33.873Z,0
2017-08-01T16:34:41.961Z,0
2017-08-01T16:35:50.064Z,0
2017-08-01T16:36:58.144Z,0
2017-08-01T16:38:06.237Z,0
2017-08-01T16:39:14.327Z,0
2017-08-01T16:40:22.416Z,0
2017-08-01T16:41:30.508Z,0
2017-08-01T16:42:38.598Z,0
2017-08-01T16:43:46.686Z,0
2017-08-01T16:44:54.779Z,0
2017-08-01T16:46:02.867Z,0
2017-08-01T16:47:10.959Z,0